sensor_id;sensor_type;location;lat;lon;timestamp;pressure;altitude;pressure_sealevel;temperature;humidity
54876;BME280;40764;48.472;8.166;2023-04-24T00:03:36;97224.97;;;10.99;99.67
54876;BME280;40764;48.472;8.166;2023-04-24T00:09:38;97226.56;;;11.00;100.00
54876;BME280;40764;48.472;8.166;2023-04-24T00:15:39;97225.94;;;11.03;100.00
54876;BME280;40764;48.472;8.166;2023-04-24T00:21:40;97232.03;;;11.09;99.54
54876;BME280;40764;48.472;8.166;2023-04-24T00:27:41;97227.69;;;11.16;99.14
54876;BME280;40764;48.472;8.166;2023-04-24T00:33:41;97221.09;;;11.09;99.48
54876;BME280;40764;48.472;8.166;2023-04-24T00:39:41;97221.09;;;11.00;100.00
54876;BME280;40764;48.472;8.166;2023-04-24T00:45:42;97236.69;;;11.17;100.00
54876;BME280;40764;48.472;8.166;2023-04-24T00:51:43;97239.44;;;11.08;100.00
54876;BME280;40764;48.472;8.166;2023-04-24T00:57:46;97241.22;;;11.04;100.00
54876;BME280;40764;48.472;8.166;2023-04-24T01:03:49;97239.41;;;10.91;100.00
54876;BME280;40764;48.472;8.166;2023-04-24T01:09:50;97213.03;;;10.86;100.00
54876;BME280;40764;48.472;8.166;2023-04-24T01:15:51;97216.59;;;10.87;100.00
54876;BME280;40764;48.472;8.166;2023-04-24T01:21:53;97217.38;;;10.96;100.00
54876;BME280;40764;48.472;8.166;2023-04-24T01:27:54;97226.56;;;10.83;100.00
54876;BME280;40764;48.472;8.166;2023-04-24T01:33:55;97206.78;;;10.95;100.00
54876;BME280;40764;48.472;8.166;2023-04-24T01:39:56;97206.63;;;10.82;100.00
54876;BME280;40764;48.472;8.166;2023-04-24T01:45:56;97204.69;;;10.83;100.00
54876;BME280;40764;48.472;8.166;2023-04-24T01:51:56;97208.38;;;10.78;100.00
54876;BME280;40764;48.472;8.166;2023-04-24T01:57:57;97211.13;;;10.78;100.00
54876;BME280;40764;48.472;8.166;2023-04-24T02:03:59;97211.75;;;10.84;100.00
54876;BME280;40764;48.472;8.166;2023-04-24T02:10:00;97208.50;;;10.65;100.00
54876;BME280;40764;48.472;8.166;2023-04-24T02:16:00;97208.19;;;10.66;100.00
54876;BME280;40764;48.472;8.166;2023-04-24T02:22:01;97205.63;;;10.61;100.00
54876;BME280;40764;48.472;8.166;2023-04-24T02:28:01;97211.59;;;10.72;100.00
54876;BME280;40764;48.472;8.166;2023-04-24T02:34:02;97208.03;;;10.63;100.00
54876;BME280;40764;48.472;8.166;2023-04-24T02:40:03;97221.22;;;10.61;100.00
54876;BME280;40764;48.472;8.166;2023-04-24T02:46:04;97220.88;;;10.62;100.00
54876;BME280;40764;48.472;8.166;2023-04-24T02:52:04;97227.47;;;10.52;100.00
54876;BME280;40764;48.472;8.166;2023-04-24T02:58:05;97220.72;;;10.67;100.00
54876;BME280;40764;48.472;8.166;2023-04-24T03:04:06;97224.31;;;10.85;100.00
54876;BME280;40764;48.472;8.166;2023-04-24T03:10:06;97205.66;;;10.78;100.00
54876;BME280;40764;48.472;8.166;2023-04-24T03:16:07;97214.63;;;10.62;100.00
54876;BME280;40764;48.472;8.166;2023-04-24T03:22:07;97208.03;;;10.63;100.00
54876;BME280;40764;48.472;8.166;2023-04-24T03:28:09;97234.38;;;10.59;100.00
54876;BME280;40764;48.472;8.166;2023-04-24T03:34:09;97250.94;;;10.45;100.00
54876;BME280;40764;48.472;8.166;2023-04-24T03:40:10;97237.09;;;10.41;100.00
54876;BME280;40764;48.472;8.166;2023-04-24T03:46:10;97267.50;;;10.48;100.00
54876;BME280;40764;48.472;8.166;2023-04-24T03:52:11;97281.63;;;10.42;100.00
54876;BME280;40764;48.472;8.166;2023-04-24T03:58:11;97286.88;;;10.38;98.88
54876;BME280;40764;48.472;8.166;2023-04-24T04:04:11;97287.50;;;10.35;99.82
54876;BME280;40764;48.472;8.166;2023-04-24T04:10:12;97295.56;;;10.40;99.12
54876;BME280;40764;48.472;8.166;2023-04-24T04:16:12;97297.31;;;10.36;100.00
54876;BME280;40764;48.472;8.166;2023-04-24T04:22:12;97297.28;;;10.28;100.00
54876;BME280;40764;48.472;8.166;2023-04-24T04:28:13;97299.84;;;10.24;100.00
54876;BME280;40764;48.472;8.166;2023-04-24T04:34:13;97316.19;;;10.15;100.00
54876;BME280;40764;48.472;8.166;2023-04-24T04:40:14;97333.47;;;10.11;100.00
54876;BME280;40764;48.472;8.166;2023-04-24T04:46:15;97338.03;;;9.93;100.00
54876;BME280;40764;48.472;8.166;2023-04-24T04:52:16;97354.41;;;10.15;100.00
54876;BME280;40764;48.472;8.166;2023-04-24T04:58:17;97360.59;;;10.07;100.00
54876;BME280;40764;48.472;8.166;2023-04-24T05:04:17;97362.28;;;10.17;100.00
54876;BME280;40764;48.472;8.166;2023-04-24T05:10:18;97366.13;;;10.16;100.00
54876;BME280;40764;48.472;8.166;2023-04-24T05:16:18;97368.38;;;10.14;97.89
54876;BME280;40764;48.472;8.166;2023-04-24T05:22:19;97380.03;;;10.06;98.09
54876;BME280;40764;48.472;8.166;2023-04-24T05:28:21;97388.47;;;9.96;98.74
54876;BME280;40764;48.472;8.166;2023-04-24T05:34:21;97391.22;;;9.96;98.03
54876;BME280;40764;48.472;8.166;2023-04-24T05:40:21;97402.19;;;10.04;95.57
54876;BME280;40764;48.472;8.166;2023-04-24T05:46:22;97404.91;;;10.04;98.12
54876;BME280;40764;48.472;8.166;2023-04-24T05:52:22;97414.00;;;10.13;94.11
54876;BME280;40764;48.472;8.166;2023-04-24T05:58:22;97431.78;;;10.11;94.71
54876;BME280;40764;48.472;8.166;2023-04-24T06:04:23;97443.28;;;9.99;96.16
54876;BME280;40764;48.472;8.166;2023-04-24T06:10:23;97470.31;;;9.87;96.35
54876;BME280;40764;48.472;8.166;2023-04-24T06:16:23;97478.00;;;9.85;95.44
54876;BME280;40764;48.472;8.166;2023-04-24T06:22:24;97473.13;;;9.96;94.61
54876;BME280;40764;48.472;8.166;2023-04-24T06:28:24;97479.31;;;10.23;92.88
54876;BME280;40764;48.472;8.166;2023-04-24T06:34:25;97479.09;;;10.20;93.93
54876;BME280;40764;48.472;8.166;2023-04-24T06:40:25;97484.78;;;10.23;93.18
54876;BME280;40764;48.472;8.166;2023-04-24T06:46:26;97486.56;;;10.28;87.83
54876;BME280;40764;48.472;8.166;2023-04-24T06:52:27;97488.41;;;10.19;86.93
54876;BME280;40764;48.472;8.166;2023-04-24T06:58:28;97498.94;;;10.12;86.61
54876;BME280;40764;48.472;8.166;2023-04-24T07:04:29;97499.66;;;10.17;83.55
54876;BME280;40764;48.472;8.166;2023-04-24T07:10:29;97510.31;;;10.41;82.70
54876;BME280;40764;48.472;8.166;2023-04-24T07:16:30;97523.84;;;10.46;80.58
54876;BME280;40764;48.472;8.166;2023-04-24T07:22:30;97516.84;;;10.40;79.91
54876;BME280;40764;48.472;8.166;2023-04-24T07:28:31;97523.53;;;10.70;76.00
54876;BME280;40764;48.472;8.166;2023-04-24T07:34:31;97534.75;;;10.69;78.17
54876;BME280;40764;48.472;8.166;2023-04-24T07:40:31;97535.66;;;10.86;77.98
54876;BME280;40764;48.472;8.166;2023-04-24T07:46:32;97531.75;;;10.79;75.99
54876;BME280;40764;48.472;8.166;2023-04-24T07:52:32;97556.19;;;10.53;76.63
54876;BME280;40764;48.472;8.166;2023-04-24T07:58:33;97572.38;;;10.94;74.58
54876;BME280;40764;48.472;8.166;2023-04-24T08:04:34;97565.28;;;11.24;72.90
54876;BME280;40764;48.472;8.166;2023-04-24T08:10:34;97578.22;;;11.01;72.45
54876;BME280;40764;48.472;8.166;2023-04-24T08:16:35;97595.69;;;11.54;69.70
54876;BME280;40764;48.472;8.166;2023-04-24T08:22:35;97605.53;;;11.24;63.97
54876;BME280;40764;48.472;8.166;2023-04-24T08:28:35;97610.00;;;11.20;64.76
54876;BME280;40764;48.472;8.166;2023-04-24T08:34:36;97622.81;;;11.33;64.29
54876;BME280;40764;48.472;8.166;2023-04-24T08:40:36;97599.19;;;11.45;63.75
54876;BME280;40764;48.472;8.166;2023-04-24T08:46:37;97606.69;;;11.62;61.83
54876;BME280;40764;48.472;8.166;2023-04-24T08:52:37;97621.75;;;11.51;62.72
54876;BME280;40764;48.472;8.166;2023-04-24T08:58:38;97613.16;;;11.35;63.47
54876;BME280;40764;48.472;8.166;2023-04-24T09:04:40;97613.00;;;11.09;64.24
54876;BME280;40764;48.472;8.166;2023-04-24T09:10:41;97626.38;;;10.66;65.19
54876;BME280;40764;48.472;8.166;2023-04-24T09:16:41;97621.72;;;10.67;64.75
54876;BME280;40764;48.472;8.166;2023-04-24T09:22:42;97636.00;;;10.41;65.81
54876;BME280;40764;48.472;8.166;2023-04-24T09:28:43;97653.00;;;10.61;66.78
54876;BME280;40764;48.472;8.166;2023-04-24T09:34:47;97675.69;;;10.61;67.52
54876;BME280;40764;48.472;8.166;2023-04-24T09:40:47;97678.59;;;10.01;73.91
54876;BME280;40764;48.472;8.166;2023-04-24T09:46:56;97675.63;;;10.11;72.20
54876;BME280;40764;48.472;8.166;2023-04-24T09:53:06;97688.97;;;10.40;73.60
54876;BME280;40764;48.472;8.166;2023-04-24T09:59:08;97689.72;;;10.18;72.65
54876;BME280;40764;48.472;8.166;2023-04-24T10:05:11;97698.09;;;10.36;73.42
54876;BME280;40764;48.472;8.166;2023-04-24T10:11:11;97707.53;;;10.43;73.45
54876;BME280;40764;48.472;8.166;2023-04-24T10:17:13;97720.06;;;10.17;75.52
54876;BME280;40764;48.472;8.166;2023-04-24T10:23:14;97717.91;;;10.55;74.64
54876;BME280;40764;48.472;8.166;2023-04-24T10:29:17;97721.19;;;10.43;74.40
54876;BME280;40764;48.472;8.166;2023-04-24T10:35:18;97721.97;;;10.03;77.23
54876;BME280;40764;48.472;8.166;2023-04-24T10:41:19;97730.78;;;10.13;79.33
54876;BME280;40764;48.472;8.166;2023-04-24T10:47:23;97725.91;;;9.97;81.36
54876;BME280;40764;48.472;8.166;2023-04-24T10:53:27;97730.88;;;9.94;80.86
54876;BME280;40764;48.472;8.166;2023-04-24T10:59:34;97719.16;;;10.35;81.26
54876;BME280;40764;48.472;8.166;2023-04-24T11:05:52;97735.31;;;10.73;77.14
54876;BME280;40764;48.472;8.166;2023-04-24T11:12:03;97732.69;;;10.40;73.34
54876;BME280;40764;48.472;8.166;2023-04-24T11:18:06;97732.13;;;10.43;72.04
54876;BME280;40764;48.472;8.166;2023-04-24T11:24:33;97745.75;;;10.57;72.37
54876;BME280;40764;48.472;8.166;2023-04-24T11:30:40;97763.69;;;10.49;72.60
54876;BME280;40764;48.472;8.166;2023-04-24T11:36:47;97781.16;;;10.62;73.02
54876;BME280;40764;48.472;8.166;2023-04-24T11:42:48;97775.91;;;10.52;74.09
54876;BME280;40764;48.472;8.166;2023-04-24T11:48:49;97783.97;;;10.84;73.89
54876;BME280;40764;48.472;8.166;2023-04-24T11:54:50;97787.53;;;11.43;75.25
54876;BME280;40764;48.472;8.166;2023-04-24T12:00:56;97773.97;;;11.38;75.26
54876;BME280;40764;48.472;8.166;2023-04-24T12:13:01;97755.31;;;11.18;72.77
54876;BME280;40764;48.472;8.166;2023-04-24T12:19:02;97750.66;;;11.18;73.05
54876;BME280;40764;48.472;8.166;2023-04-24T12:25:03;97742.31;;;11.24;72.45
54876;BME280;40764;48.472;8.166;2023-04-24T12:31:06;97746.53;;;11.07;73.04
54876;BME280;40764;48.472;8.166;2023-04-24T12:37:13;97746.91;;;11.14;69.15
54876;BME280;40764;48.472;8.166;2023-04-24T12:43:18;97744.31;;;11.09;71.61
54876;BME280;40764;48.472;8.166;2023-04-24T12:49:19;97739.78;;;10.91;70.89
54876;BME280;40764;48.472;8.166;2023-04-24T12:55:19;97747.63;;;10.84;69.04
54876;BME280;40764;48.472;8.166;2023-04-24T13:01:19;97747.75;;;10.79;70.30
54876;BME280;40764;48.472;8.166;2023-04-24T13:07:20;97741.44;;;11.14;69.01
54876;BME280;40764;48.472;8.166;2023-04-24T13:13:20;97746.78;;;11.20;68.07
54876;BME280;40764;48.472;8.166;2023-04-24T13:19:21;97748.78;;;11.05;68.59
54876;BME280;40764;48.472;8.166;2023-04-24T13:25:21;97752.84;;;10.94;68.82
54876;BME280;40764;48.472;8.166;2023-04-24T13:31:23;97748.53;;;11.15;67.64
54876;BME280;40764;48.472;8.166;2023-04-24T13:37:23;97743.56;;;11.17;68.27
54876;BME280;40764;48.472;8.166;2023-04-24T13:43:24;97744.38;;;11.18;67.62
54876;BME280;40764;48.472;8.166;2023-04-24T13:49:25;97733.44;;;11.40;68.43
54876;BME280;40764;48.472;8.166;2023-04-24T13:55:25;97724.56;;;11.66;66.47
54876;BME280;40764;48.472;8.166;2023-04-24T14:01:26;97736.81;;;11.68;67.19
54876;BME280;40764;48.472;8.166;2023-04-24T14:07:27;97725.09;;;11.76;66.23
54876;BME280;40764;48.472;8.166;2023-04-24T14:13:28;97725.81;;;11.82;66.40
54876;BME280;40764;48.472;8.166;2023-04-24T14:19:29;97722.81;;;11.70;67.80
54876;BME280;40764;48.472;8.166;2023-04-24T14:25:29;97715.16;;;11.81;68.71
54876;BME280;40764;48.472;8.166;2023-04-24T14:31:30;97708.38;;;11.78;68.46
54876;BME280;40764;48.472;8.166;2023-04-24T14:37:30;97709.94;;;12.01;66.14
54876;BME280;40764;48.472;8.166;2023-04-24T14:43:30;97700.53;;;12.25;66.00
54876;BME280;40764;48.472;8.166;2023-04-24T14:49:31;97699.41;;;12.26;66.92
54876;BME280;40764;48.472;8.166;2023-04-24T14:55:31;97690.94;;;12.96;66.30
54876;BME280;40764;48.472;8.166;2023-04-24T15:01:33;97679.31;;;13.17;63.11
54876;BME280;40764;48.472;8.166;2023-04-24T15:07:33;97671.09;;;12.82;61.08
54876;BME280;40764;48.472;8.166;2023-04-24T15:13:35;97680.63;;;12.85;60.03
54876;BME280;40764;48.472;8.166;2023-04-24T15:19:36;97676.50;;;12.30;63.01
54876;BME280;40764;48.472;8.166;2023-04-24T15:25:36;97674.16;;;12.63;61.50
54876;BME280;40764;48.472;8.166;2023-04-24T15:31:37;97684.97;;;12.60;62.88
54876;BME280;40764;48.472;8.166;2023-04-24T15:37:40;97674.16;;;12.72;66.69
54876;BME280;40764;48.472;8.166;2023-04-24T15:43:40;97664.97;;;12.85;65.40
54876;BME280;40764;48.472;8.166;2023-04-24T15:49:41;97645.44;;;12.87;63.80
54876;BME280;40764;48.472;8.166;2023-04-24T15:55:41;97652.84;;;12.69;64.90
54876;BME280;40764;48.472;8.166;2023-04-24T16:01:42;97655.75;;;12.47;67.16
54876;BME280;40764;48.472;8.166;2023-04-24T16:07:42;97648.41;;;12.07;70.11
54876;BME280;40764;48.472;8.166;2023-04-24T16:13:42;97666.09;;;11.93;71.03
54876;BME280;40764;48.472;8.166;2023-04-24T16:19:43;97657.91;;;12.01;76.65
54876;BME280;40764;48.472;8.166;2023-04-24T16:25:43;97662.06;;;11.90;72.32
54876;BME280;40764;48.472;8.166;2023-04-24T16:31:44;97670.94;;;11.96;74.96
54876;BME280;40764;48.472;8.166;2023-04-24T16:37:44;97665.94;;;11.89;78.12
54876;BME280;40764;48.472;8.166;2023-04-24T16:43:45;97672.56;;;11.66;82.43
54876;BME280;40764;48.472;8.166;2023-04-24T16:49:45;97668.03;;;11.61;83.73
54876;BME280;40764;48.472;8.166;2023-04-24T16:55:46;97676.81;;;11.49;83.21
54876;BME280;40764;48.472;8.166;2023-04-24T17:01:46;97675.19;;;11.48;81.83
54876;BME280;40764;48.472;8.166;2023-04-24T17:07:48;97692.69;;;11.70;76.55
54876;BME280;40764;48.472;8.166;2023-04-24T17:13:48;97700.59;;;11.40;77.77
54876;BME280;40764;48.472;8.166;2023-04-24T17:19:49;97704.31;;;11.44;77.31
54876;BME280;40764;48.472;8.166;2023-04-24T17:25:50;97692.69;;;11.39;70.55
54876;BME280;40764;48.472;8.166;2023-04-24T17:31:50;97695.78;;;11.46;69.42
54876;BME280;40764;48.472;8.166;2023-04-24T17:37:51;97694.94;;;11.37;67.74
54876;BME280;40764;48.472;8.166;2023-04-24T17:43:51;97690.63;;;11.44;70.11
54876;BME280;40764;48.472;8.166;2023-04-24T17:49:51;97688.19;;;11.65;71.09
54876;BME280;40764;48.472;8.166;2023-04-24T17:55:52;97685.66;;;11.46;78.24
54876;BME280;40764;48.472;8.166;2023-04-24T18:01:53;97697.34;;;10.94;83.95
54876;BME280;40764;48.472;8.166;2023-04-24T18:07:54;97697.53;;;10.97;84.48
54876;BME280;40764;48.472;8.166;2023-04-24T18:13:55;97702.38;;;10.78;85.23
54876;BME280;40764;48.472;8.166;2023-04-24T18:19:55;97708.97;;;10.77;85.18
54876;BME280;40764;48.472;8.166;2023-04-24T18:25:55;97707.88;;;10.64;86.29
54876;BME280;40764;48.472;8.166;2023-04-24T18:31:56;97710.25;;;10.16;88.13
54876;BME280;40764;48.472;8.166;2023-04-24T18:37:56;97711.72;;;9.81;90.96
54876;BME280;40764;48.472;8.166;2023-04-24T18:43:56;97714.25;;;9.63;91.65
54876;BME280;40764;48.472;8.166;2023-04-24T18:49:58;97722.34;;;9.55;91.70
54876;BME280;40764;48.472;8.166;2023-04-24T18:55:58;97728.41;;;9.66;92.13
54876;BME280;40764;48.472;8.166;2023-04-24T19:01:58;97730.16;;;9.43;94.70
54876;BME280;40764;48.472;8.166;2023-04-24T19:07:59;97730.66;;;9.31;94.98
54876;BME280;40764;48.472;8.166;2023-04-24T19:13:59;97739.22;;;9.57;93.08
54876;BME280;40764;48.472;8.166;2023-04-24T19:20:03;97753.91;;;9.42;94.93
54876;BME280;40764;48.472;8.166;2023-04-24T19:26:04;97748.47;;;9.23;95.52
54876;BME280;40764;48.472;8.166;2023-04-24T19:32:05;97760.78;;;9.21;96.52
54876;BME280;40764;48.472;8.166;2023-04-24T19:38:05;97761.03;;;9.06;97.66
54876;BME280;40764;48.472;8.166;2023-04-24T19:44:05;97754.22;;;9.22;97.96
54876;BME280;40764;48.472;8.166;2023-04-24T19:50:06;97757.22;;;9.25;97.19
54876;BME280;40764;48.472;8.166;2023-04-24T19:56:07;97757.72;;;8.90;99.20
54876;BME280;40764;48.472;8.166;2023-04-24T20:02:08;97755.72;;;9.14;98.09
54876;BME280;40764;48.472;8.166;2023-04-24T20:08:09;97751.97;;;8.91;98.75
54876;BME280;40764;48.472;8.166;2023-04-24T20:14:10;97752.19;;;8.95;99.68
54876;BME280;40764;48.472;8.166;2023-04-24T20:20:10;97748.66;;;8.94;100.00
54876;BME280;40764;48.472;8.166;2023-04-24T20:26:11;97744.22;;;9.17;98.38
54876;BME280;40764;48.472;8.166;2023-04-24T20:32:11;97749.47;;;8.95;98.37
54876;BME280;40764;48.472;8.166;2023-04-24T20:38:12;97755.69;;;9.00;100.00
54876;BME280;40764;48.472;8.166;2023-04-24T20:44:13;97750.53;;;8.99;99.81
54876;BME280;40764;48.472;8.166;2023-04-24T20:50:13;97741.97;;;8.87;100.00
54876;BME280;40764;48.472;8.166;2023-04-24T20:56:15;97740.94;;;8.83;100.00
54876;BME280;40764;48.472;8.166;2023-04-24T21:02:15;97736.97;;;8.75;100.00
54876;BME280;40764;48.472;8.166;2023-04-24T21:08:16;97730.50;;;8.71;100.00
54876;BME280;40764;48.472;8.166;2023-04-24T21:14:16;97730.53;;;8.66;100.00
54876;BME280;40764;48.472;8.166;2023-04-24T21:20:17;97739.25;;;8.68;100.00
54876;BME280;40764;48.472;8.166;2023-04-24T21:26:17;97726.59;;;8.77;100.00
54876;BME280;40764;48.472;8.166;2023-04-24T21:32:17;97722.09;;;8.67;100.00
54876;BME280;40764;48.472;8.166;2023-04-24T21:38:18;97709.91;;;8.60;100.00
54876;BME280;40764;48.472;8.166;2023-04-24T21:44:23;97709.84;;;8.65;100.00
54876;BME280;40764;48.472;8.166;2023-04-24T21:50:24;97699.69;;;8.52;100.00
54876;BME280;40764;48.472;8.166;2023-04-24T21:56:25;97696.97;;;8.28;100.00
54876;BME280;40764;48.472;8.166;2023-04-24T22:02:25;97696.06;;;8.37;100.00
54876;BME280;40764;48.472;8.166;2023-04-24T22:08:26;97687.19;;;8.51;100.00
54876;BME280;40764;48.472;8.166;2023-04-24T22:14:26;97680.34;;;8.53;100.00
54876;BME280;40764;48.472;8.166;2023-04-24T22:20:26;97676.03;;;8.66;100.00
54876;BME280;40764;48.472;8.166;2023-04-24T22:26:27;97678.94;;;8.75;100.00
54876;BME280;40764;48.472;8.166;2023-04-24T22:32:27;97669.78;;;8.84;100.00
54876;BME280;40764;48.472;8.166;2023-04-24T22:38:30;97670.75;;;8.56;100.00
54876;BME280;40764;48.472;8.166;2023-04-24T22:44:30;97671.81;;;8.41;100.00
54876;BME280;40764;48.472;8.166;2023-04-24T22:50:31;97661.41;;;8.43;100.00
54876;BME280;40764;48.472;8.166;2023-04-24T22:56:32;97657.59;;;8.44;100.00
54876;BME280;40764;48.472;8.166;2023-04-24T23:02:33;97658.34;;;8.26;100.00
54876;BME280;40764;48.472;8.166;2023-04-24T23:08:33;97662.81;;;8.41;100.00
54876;BME280;40764;48.472;8.166;2023-04-24T23:14:34;97652.38;;;8.24;100.00
54876;BME280;40764;48.472;8.166;2023-04-24T23:20:34;97649.66;;;8.24;100.00
54876;BME280;40764;48.472;8.166;2023-04-24T23:26:34;97655.84;;;8.29;100.00
54876;BME280;40764;48.472;8.166;2023-04-24T23:32:36;97643.69;;;8.22;100.00
54876;BME280;40764;48.472;8.166;2023-04-24T23:38:36;97647.81;;;8.19;100.00
54876;BME280;40764;48.472;8.166;2023-04-24T23:44:37;97650.63;;;8.14;100.00
54876;BME280;40764;48.472;8.166;2023-04-24T23:50:37;97631.59;;;8.52;100.00
54876;BME280;40764;48.472;8.166;2023-04-24T23:56:37;97636.19;;;8.32;100.00
